sensor_id;sensor_type;location;lat;lon;timestamp;temperature;humidity
25108;DHT22;13090;53.422;7.670;2024-01-30T00:01:46;9.90;96.70
25108;DHT22;13090;53.422;7.670;2024-01-30T00:07:27;9.80;96.80
25108;DHT22;13090;53.422;7.670;2024-01-30T00:13:07;9.80;96.80
25108;DHT22;13090;53.422;7.670;2024-01-30T00:18:49;9.70;96.90
25108;DHT22;13090;53.422;7.670;2024-01-30T00:24:30;9.70;97.00
25108;DHT22;13090;53.422;7.670;2024-01-30T00:30:11;9.70;97.00
25108;DHT22;13090;53.422;7.670;2024-01-30T00:35:53;9.60;97.00
25108;DHT22;13090;53.422;7.670;2024-01-30T00:41:33;9.60;97.00
25108;DHT22;13090;53.422;7.670;2024-01-30T00:47:14;9.60;97.10
25108;DHT22;13090;53.422;7.670;2024-01-30T00:52:56;9.50;97.10
25108;DHT22;13090;53.422;7.670;2024-01-30T00:58:37;9.50;97.10
25108;DHT22;13090;53.422;7.670;2024-01-30T01:04:18;9.50;97.00
25108;DHT22;13090;53.422;7.670;2024-01-30T01:10:00;9.40;97.00
25108;DHT22;13090;53.422;7.670;2024-01-30T01:15:40;9.30;97.10
25108;DHT22;13090;53.422;7.670;2024-01-30T01:21:20;9.20;97.10
25108;DHT22;13090;53.422;7.670;2024-01-30T01:27:02;9.10;97.20
25108;DHT22;13090;53.422;7.670;2024-01-30T01:32:43;9.10;97.30
25108;DHT22;13090;53.422;7.670;2024-01-30T01:38:23;9.10;97.30
25108;DHT22;13090;53.422;7.670;2024-01-30T01:44:05;9.00;97.40
25108;DHT22;13090;53.422;7.670;2024-01-30T01:49:45;9.00;97.40
25108;DHT22;13090;53.422;7.670;2024-01-30T01:55:26;8.90;97.40
25108;DHT22;13090;53.422;7.670;2024-01-30T02:01:08;8.90;97.50
25108;DHT22;13090;53.422;7.670;2024-01-30T02:06:48;8.80;97.60
25108;DHT22;13090;53.422;7.670;2024-01-30T02:12:30;8.80;97.60
25108;DHT22;13090;53.422;7.670;2024-01-30T02:18:12;8.70;97.60
25108;DHT22;13090;53.422;7.670;2024-01-30T02:23:55;8.70;97.70
25108;DHT22;13090;53.422;7.670;2024-01-30T02:29:35;8.70;97.70
25108;DHT22;13090;53.422;7.670;2024-01-30T02:35:16;8.60;97.70
25108;DHT22;13090;53.422;7.670;2024-01-30T02:40:58;8.50;97.70
25108;DHT22;13090;53.422;7.670;2024-01-30T02:46:38;8.50;97.80
25108;DHT22;13090;53.422;7.670;2024-01-30T02:52:18;8.40;97.80
25108;DHT22;13090;53.422;7.670;2024-01-30T02:58:00;8.40;97.90
25108;DHT22;13090;53.422;7.670;2024-01-30T03:03:41;8.30;97.90
25108;DHT22;13090;53.422;7.670;2024-01-30T03:09:21;8.30;98.00
25108;DHT22;13090;53.422;7.670;2024-01-30T03:15:03;8.30;98.00
25108;DHT22;13090;53.422;7.670;2024-01-30T03:20:44;8.20;98.00
25108;DHT22;13090;53.422;7.670;2024-01-30T03:26:24;8.20;98.10
25108;DHT22;13090;53.422;7.670;2024-01-30T03:32:06;8.20;98.20
25108;DHT22;13090;53.422;7.670;2024-01-30T03:37:46;8.20;98.30
25108;DHT22;13090;53.422;7.670;2024-01-30T03:43:27;8.20;98.30
25108;DHT22;13090;53.422;7.670;2024-01-30T03:49:09;8.20;98.40
25108;DHT22;13090;53.422;7.670;2024-01-30T03:54:50;8.20;98.50
25108;DHT22;13090;53.422;7.670;2024-01-30T04:00:30;8.20;98.40
25108;DHT22;13090;53.422;7.670;2024-01-30T04:06:12;8.20;98.40
25108;DHT22;13090;53.422;7.670;2024-01-30T04:11:53;8.10;98.50
25108;DHT22;13090;53.422;7.670;2024-01-30T04:17:33;8.10;98.40
25108;DHT22;13090;53.422;7.670;2024-01-30T04:23:15;8.10;98.70
25108;DHT22;13090;53.422;7.670;2024-01-30T04:28:55;8.10;98.70
25108;DHT22;13090;53.422;7.670;2024-01-30T04:34:36;8.10;98.70
25108;DHT22;13090;53.422;7.670;2024-01-30T04:40:18;8.10;98.80
25108;DHT22;13090;53.422;7.670;2024-01-30T04:45:59;8.20;98.90
25108;DHT22;13090;53.422;7.670;2024-01-30T04:51:39;8.20;98.90
25108;DHT22;13090;53.422;7.670;2024-01-30T04:57:21;8.20;98.90
25108;DHT22;13090;53.422;7.670;2024-01-30T05:03:02;8.20;99.00
25108;DHT22;13090;53.422;7.670;2024-01-30T05:08:42;8.30;99.10
25108;DHT22;13090;53.422;7.670;2024-01-30T05:14:24;8.30;99.10
25108;DHT22;13090;53.422;7.670;2024-01-30T05:20:05;8.40;99.30
25108;DHT22;13090;53.422;7.670;2024-01-30T05:25:46;8.50;99.20
25108;DHT22;13090;53.422;7.670;2024-01-30T05:31:28;8.60;99.10
25108;DHT22;13090;53.422;7.670;2024-01-30T05:37:08;8.70;99.10
25108;DHT22;13090;53.422;7.670;2024-01-30T05:42:49;8.80;99.10
25108;DHT22;13090;53.422;7.670;2024-01-30T05:48:31;8.80;99.00
25108;DHT22;13090;53.422;7.670;2024-01-30T05:54:11;8.90;99.10
25108;DHT22;13090;53.422;7.670;2024-01-30T05:59:56;9.00;99.00
25108;DHT22;13090;53.422;7.670;2024-01-30T06:05:38;9.00;99.00
25108;DHT22;13090;53.422;7.670;2024-01-30T06:11:19;9.00;99.00
25108;DHT22;13090;53.422;7.670;2024-01-30T06:16:59;9.00;99.00
25108;DHT22;13090;53.422;7.670;2024-01-30T06:22:41;9.10;99.00
25108;DHT22;13090;53.422;7.670;2024-01-30T06:28:22;9.10;99.10
25108;DHT22;13090;53.422;7.670;2024-01-30T06:34:03;9.20;99.10
25108;DHT22;13090;53.422;7.670;2024-01-30T06:39:46;9.30;99.10
25108;DHT22;13090;53.422;7.670;2024-01-30T06:45:26;9.30;99.10
25108;DHT22;13090;53.422;7.670;2024-01-30T06:51:07;9.30;99.00
25108;DHT22;13090;53.422;7.670;2024-01-30T06:56:49;9.40;99.00
25108;DHT22;13090;53.422;7.670;2024-01-30T07:02:29;9.40;99.00
25108;DHT22;13090;53.422;7.670;2024-01-30T07:08:10;9.40;99.00
25108;DHT22;13090;53.422;7.670;2024-01-30T07:13:52;9.50;99.10
25108;DHT22;13090;53.422;7.670;2024-01-30T07:19:32;9.50;99.10
25108;DHT22;13090;53.422;7.670;2024-01-30T07:25:13;9.50;99.10
25108;DHT22;13090;53.422;7.670;2024-01-30T07:30:55;9.60;99.10
25108;DHT22;13090;53.422;7.670;2024-01-30T07:36:35;9.70;99.20
25108;DHT22;13090;53.422;7.670;2024-01-30T07:42:15;9.80;99.30
25108;DHT22;13090;53.422;7.670;2024-01-30T07:47:57;9.80;99.20
25108;DHT22;13090;53.422;7.670;2024-01-30T07:53:38;9.90;99.20
25108;DHT22;13090;53.422;7.670;2024-01-30T07:59:18;9.90;99.10
25108;DHT22;13090;53.422;7.670;2024-01-30T08:05:00;10.00;99.10
25108;DHT22;13090;53.422;7.670;2024-01-30T08:10:41;10.10;99.10
25108;DHT22;13090;53.422;7.670;2024-01-30T08:16:21;10.10;99.10
25108;DHT22;13090;53.422;7.670;2024-01-30T08:22:03;10.10;99.00
25108;DHT22;13090;53.422;7.670;2024-01-30T08:27:44;10.20;99.10
25108;DHT22;13090;53.422;7.670;2024-01-30T08:33:25;10.10;99.10
25108;DHT22;13090;53.422;7.670;2024-01-30T08:39:07;10.20;99.10
25108;DHT22;13090;53.422;7.670;2024-01-30T08:44:47;10.30;99.10
25108;DHT22;13090;53.422;7.670;2024-01-30T08:50:28;10.30;99.10
25108;DHT22;13090;53.422;7.670;2024-01-30T08:56:09;10.30;99.10
25108;DHT22;13090;53.422;7.670;2024-01-30T09:01:50;10.40;99.20
25108;DHT22;13090;53.422;7.670;2024-01-30T09:07:46;10.50;99.20
25108;DHT22;13090;53.422;7.670;2024-01-30T09:13:28;10.60;99.20
25108;DHT22;13090;53.422;7.670;2024-01-30T09:19:08;10.70;99.20
25108;DHT22;13090;53.422;7.670;2024-01-30T09:24:49;10.80;99.20
25108;DHT22;13090;53.422;7.670;2024-01-30T09:30:31;10.80;99.10
25108;DHT22;13090;53.422;7.670;2024-01-30T09:36:11;11.00;99.20
25108;DHT22;13090;53.422;7.670;2024-01-30T09:41:59;11.00;99.20
25108;DHT22;13090;53.422;7.670;2024-01-30T09:47:43;11.10;99.20
25108;DHT22;13090;53.422;7.670;2024-01-30T09:53:25;11.30;99.20
25108;DHT22;13090;53.422;7.670;2024-01-30T09:59:05;11.40;99.20
25108;DHT22;13090;53.422;7.670;2024-01-30T10:04:49;11.50;99.10
25108;DHT22;13090;53.422;7.670;2024-01-30T10:10:30;11.60;99.00
25108;DHT22;13090;53.422;7.670;2024-01-30T10:16:10;11.70;98.90
25108;DHT22;13090;53.422;7.670;2024-01-30T10:21:55;11.80;98.90
25108;DHT22;13090;53.422;7.670;2024-01-30T10:27:36;11.80;98.80
25108;DHT22;13090;53.422;7.670;2024-01-30T10:33:16;11.90;98.80
25108;DHT22;13090;53.422;7.670;2024-01-30T10:38:59;12.00;98.90
25108;DHT22;13090;53.422;7.670;2024-01-30T10:44:47;12.10;98.90
25108;DHT22;13090;53.422;7.670;2024-01-30T10:50:29;12.20;99.00
25108;DHT22;13090;53.422;7.670;2024-01-30T10:56:13;12.30;98.90
25108;DHT22;13090;53.422;7.670;2024-01-30T11:01:54;12.40;98.90
25108;DHT22;13090;53.422;7.670;2024-01-30T11:07:35;12.50;98.80
25108;DHT22;13090;53.422;7.670;2024-01-30T11:13:19;12.60;98.80
25108;DHT22;13090;53.422;7.670;2024-01-30T11:19:01;12.70;98.80
25108;DHT22;13090;53.422;7.670;2024-01-30T11:24:42;12.70;98.70
25108;DHT22;13090;53.422;7.670;2024-01-30T11:30:25;12.80;98.80
25108;DHT22;13090;53.422;7.670;2024-01-30T11:36:06;12.80;98.80
25108;DHT22;13090;53.422;7.670;2024-01-30T11:41:46;12.90;98.80
25108;DHT22;13090;53.422;7.670;2024-01-30T11:47:29;13.00;98.80
25108;DHT22;13090;53.422;7.670;2024-01-30T11:53:10;13.10;98.70
25108;DHT22;13090;53.422;7.670;2024-01-30T11:58:51;13.20;98.70
25108;DHT22;13090;53.422;7.670;2024-01-30T12:04:33;13.20;98.70
25108;DHT22;13090;53.422;7.670;2024-01-30T12:10:14;13.30;99.00
25108;DHT22;13090;53.422;7.670;2024-01-30T12:15:55;13.30;98.50
25108;DHT22;13090;53.422;7.670;2024-01-30T12:21:38;13.30;98.40
25108;DHT22;13090;53.422;7.670;2024-01-30T12:27:19;13.30;98.40
25108;DHT22;13090;53.422;7.670;2024-01-30T12:32:59;13.30;98.50
25108;DHT22;13090;53.422;7.670;2024-01-30T12:38:41;13.30;98.50
25108;DHT22;13090;53.422;7.670;2024-01-30T12:44:22;13.30;98.50
25108;DHT22;13090;53.422;7.670;2024-01-30T12:50:02;13.30;98.50
25108;DHT22;13090;53.422;7.670;2024-01-30T12:55:44;13.30;98.50
25108;DHT22;13090;53.422;7.670;2024-01-30T13:01:24;13.30;98.60
25108;DHT22;13090;53.422;7.670;2024-01-30T13:07:05;13.30;98.60
25108;DHT22;13090;53.422;7.670;2024-01-30T13:12:47;13.30;98.60
25108;DHT22;13090;53.422;7.670;2024-01-30T13:18:27;13.30;98.60
25108;DHT22;13090;53.422;7.670;2024-01-30T13:24:08;13.40;98.70
25108;DHT22;13090;53.422;7.670;2024-01-30T13:29:50;13.40;98.70
25108;DHT22;13090;53.422;7.670;2024-01-30T13:35:30;13.50;98.60
25108;DHT22;13090;53.422;7.670;2024-01-30T13:41:10;13.40;98.40
25108;DHT22;13090;53.422;7.670;2024-01-30T13:46:52;13.30;98.30
25108;DHT22;13090;53.422;7.670;2024-01-30T13:52:33;13.30;98.30
25108;DHT22;13090;53.422;7.670;2024-01-30T13:58:23;13.30;98.30
25108;DHT22;13090;53.422;7.670;2024-01-30T14:04:05;13.20;98.10
25108;DHT22;13090;53.422;7.670;2024-01-30T14:09:50;13.20;98.10
25108;DHT22;13090;53.422;7.670;2024-01-30T14:15:30;13.10;98.20
25108;DHT22;13090;53.422;7.670;2024-01-30T14:21:12;13.10;98.10
25108;DHT22;13090;53.422;7.670;2024-01-30T14:26:53;13.10;98.00
25108;DHT22;13090;53.422;7.670;2024-01-30T14:32:33;13.00;97.90
25108;DHT22;13090;53.422;7.670;2024-01-30T14:38:15;13.00;97.90
25108;DHT22;13090;53.422;7.670;2024-01-30T14:43:56;12.90;97.70
25108;DHT22;13090;53.422;7.670;2024-01-30T14:49:36;12.90;97.60
25108;DHT22;13090;53.422;7.670;2024-01-30T14:55:18;12.80;97.50
25108;DHT22;13090;53.422;7.670;2024-01-30T15:00:58;12.70;97.40
25108;DHT22;13090;53.422;7.670;2024-01-30T15:06:39;12.70;97.80
25108;DHT22;13090;53.422;7.670;2024-01-30T15:12:21;12.70;97.50
25108;DHT22;13090;53.422;7.670;2024-01-30T15:18:01;12.70;97.50
25108;DHT22;13090;53.422;7.670;2024-01-30T15:23:42;12.60;97.60
25108;DHT22;13090;53.422;7.670;2024-01-30T15:29:24;12.60;97.60
25108;DHT22;13090;53.422;7.670;2024-01-30T15:35:05;12.50;97.60
25108;DHT22;13090;53.422;7.670;2024-01-30T15:40:46;12.50;97.60
25108;DHT22;13090;53.422;7.670;2024-01-30T15:46:28;12.50;97.70
25108;DHT22;13090;53.422;7.670;2024-01-30T15:52:08;12.40;97.70
25108;DHT22;13090;53.422;7.670;2024-01-30T15:57:49;12.40;97.80
25108;DHT22;13090;53.422;7.670;2024-01-30T16:03:31;12.30;97.90
25108;DHT22;13090;53.422;7.670;2024-01-30T16:09:11;12.20;98.10
25108;DHT22;13090;53.422;7.670;2024-01-30T16:14:51;12.10;98.30
25108;DHT22;13090;53.422;7.670;2024-01-30T16:20:33;12.00;98.60
25108;DHT22;13090;53.422;7.670;2024-01-30T16:26:14;11.90;98.80
25108;DHT22;13090;53.422;7.670;2024-01-30T16:31:54;11.80;99.00
25108;DHT22;13090;53.422;7.670;2024-01-30T16:37:36;11.70;99.20
25108;DHT22;13090;53.422;7.670;2024-01-30T16:43:16;11.60;99.30
25108;DHT22;13090;53.422;7.670;2024-01-30T16:48:56;11.60;99.40
25108;DHT22;13090;53.422;7.670;2024-01-30T16:54:38;11.60;99.60
25108;DHT22;13090;53.422;7.670;2024-01-30T17:00:19;11.50;99.70
25108;DHT22;13090;53.422;7.670;2024-01-30T17:05:59;11.50;99.70
25108;DHT22;13090;53.422;7.670;2024-01-30T17:11:41;11.40;99.70
25108;DHT22;13090;53.422;7.670;2024-01-30T17:17:22;11.40;99.90
25108;DHT22;13090;53.422;7.670;2024-01-30T17:23:03;11.30;99.90
25108;DHT22;13090;53.422;7.670;2024-01-30T17:28:45;11.30;99.90
25108;DHT22;13090;53.422;7.670;2024-01-30T17:34:25;11.20;99.90
25108;DHT22;13090;53.422;7.670;2024-01-30T17:40:07;11.20;99.90
25108;DHT22;13090;53.422;7.670;2024-01-30T17:45:50;11.10;99.90
25108;DHT22;13090;53.422;7.670;2024-01-30T17:51:30;11.10;99.90
25108;DHT22;13090;53.422;7.670;2024-01-30T17:57:10;11.10;99.90
25108;DHT22;13090;53.422;7.670;2024-01-30T18:02:52;11.10;99.90
25108;DHT22;13090;53.422;7.670;2024-01-30T18:08:33;11.20;99.90
25108;DHT22;13090;53.422;7.670;2024-01-30T18:14:13;11.10;99.90
25108;DHT22;13090;53.422;7.670;2024-01-30T18:19:55;11.10;99.90
25108;DHT22;13090;53.422;7.670;2024-01-30T18:25:37;11.10;99.90
25108;DHT22;13090;53.422;7.670;2024-01-30T18:31:18;11.00;99.90
25108;DHT22;13090;53.422;7.670;2024-01-30T18:37:00;11.00;99.90
25108;DHT22;13090;53.422;7.670;2024-01-30T18:42:41;10.90;99.90
25108;DHT22;13090;53.422;7.670;2024-01-30T18:48:22;10.90;99.90
25108;DHT22;13090;53.422;7.670;2024-01-30T18:54:04;10.80;99.90
25108;DHT22;13090;53.422;7.670;2024-01-30T18:59:44;10.70;99.90
25108;DHT22;13090;53.422;7.670;2024-01-30T19:05:24;10.70;99.90
25108;DHT22;13090;53.422;7.670;2024-01-30T19:11:06;10.60;99.90
25108;DHT22;13090;53.422;7.670;2024-01-30T19:16:47;10.50;99.90
25108;DHT22;13090;53.422;7.670;2024-01-30T19:22:27;10.50;99.90
25108;DHT22;13090;53.422;7.670;2024-01-30T19:28:09;10.40;99.90
25108;DHT22;13090;53.422;7.670;2024-01-30T19:33:49;10.40;99.90
25108;DHT22;13090;53.422;7.670;2024-01-30T19:39:30;10.40;99.90
25108;DHT22;13090;53.422;7.670;2024-01-30T19:45:12;10.30;99.90
25108;DHT22;13090;53.422;7.670;2024-01-30T19:50:52;10.30;99.90
25108;DHT22;13090;53.422;7.670;2024-01-30T19:56:32;10.30;99.90
25108;DHT22;13090;53.422;7.670;2024-01-30T20:02:14;10.20;99.90
25108;DHT22;13090;53.422;7.670;2024-01-30T20:07:55;10.20;99.90
25108;DHT22;13090;53.422;7.670;2024-01-30T20:13:35;10.10;99.90
25108;DHT22;13090;53.422;7.670;2024-01-30T20:19:16;10.10;99.90
25108;DHT22;13090;53.422;7.670;2024-01-30T20:25:00;10.00;99.90
25108;DHT22;13090;53.422;7.670;2024-01-30T20:30:56;10.00;99.90
25108;DHT22;13090;53.422;7.670;2024-01-30T20:36:40;10.00;99.90
25108;DHT22;13090;53.422;7.670;2024-01-30T20:42:21;9.90;99.90
25108;DHT22;13090;53.422;7.670;2024-01-30T20:48:02;9.90;99.90
25108;DHT22;13090;53.422;7.670;2024-01-30T20:53:43;9.90;99.90
25108;DHT22;13090;53.422;7.670;2024-01-30T20:59:23;9.80;99.90
25108;DHT22;13090;53.422;7.670;2024-01-30T21:05:04;9.80;99.90
25108;DHT22;13090;53.422;7.670;2024-01-30T21:10:46;9.70;99.90
25108;DHT22;13090;53.422;7.670;2024-01-30T21:16:27;9.70;99.90
25108;DHT22;13090;53.422;7.670;2024-01-30T21:22:07;9.70;99.90
25108;DHT22;13090;53.422;7.670;2024-01-30T21:27:49;9.70;99.90
25108;DHT22;13090;53.422;7.670;2024-01-30T21:33:31;9.60;99.90
25108;DHT22;13090;53.422;7.670;2024-01-30T21:39:12;9.50;99.90
25108;DHT22;13090;53.422;7.670;2024-01-30T21:44:53;9.50;99.90
25108;DHT22;13090;53.422;7.670;2024-01-30T21:50:34;9.40;99.90
25108;DHT22;13090;53.422;7.670;2024-01-30T21:56:14;9.30;99.90
25108;DHT22;13090;53.422;7.670;2024-01-30T22:01:56;9.20;99.90
25108;DHT22;13090;53.422;7.670;2024-01-30T22:07:38;9.20;99.90
25108;DHT22;13090;53.422;7.670;2024-01-30T22:13:19;9.10;99.90
25108;DHT22;13090;53.422;7.670;2024-01-30T22:19:00;9.10;99.90
25108;DHT22;13090;53.422;7.670;2024-01-30T22:24:40;9.10;99.90
25108;DHT22;13090;53.422;7.670;2024-01-30T22:30:21;9.00;99.90
25108;DHT22;13090;53.422;7.670;2024-01-30T22:36:03;9.00;99.90
25108;DHT22;13090;53.422;7.670;2024-01-30T22:41:44;9.00;99.90
25108;DHT22;13090;53.422;7.670;2024-01-30T22:47:26;8.90;99.90
25108;DHT22;13090;53.422;7.670;2024-01-30T22:53:11;8.90;99.90
25108;DHT22;13090;53.422;7.670;2024-01-30T22:58:51;8.80;99.90
25108;DHT22;13090;53.422;7.670;2024-01-30T23:04:31;8.80;99.90
25108;DHT22;13090;53.422;7.670;2024-01-30T23:10:13;8.80;99.90
25108;DHT22;13090;53.422;7.670;2024-01-30T23:15:53;8.80;99.90
25108;DHT22;13090;53.422;7.670;2024-01-30T23:21:35;8.80;99.90
25108;DHT22;13090;53.422;7.670;2024-01-30T23:27:17;8.80;99.90
25108;DHT22;13090;53.422;7.670;2024-01-30T23:32:57;8.70;99.90
25108;DHT22;13090;53.422;7.670;2024-01-30T23:38:37;8.70;99.90
25108;DHT22;13090;53.422;7.670;2024-01-30T23:44:19;8.80;99.90
25108;DHT22;13090;53.422;7.670;2024-01-30T23:50:00;8.70;99.90
25108;DHT22;13090;53.422;7.670;2024-01-30T23:55:40;8.70;99.90
